createdAt,value
2019-04-06T00:00:41.331Z,8.78
2019-04-06T00:01:41.408Z,8.84
2019-04-06T00:02:41.314Z,8.82
2019-04-06T00:03:41.299Z,8.84
2019-04-06T00:04:41.278Z,8.84
2019-04-06T00:05:41.283Z,8.82
2019-04-06T00:06:41.265Z,8.85
2019-04-06T00:07:41.339Z,8.87
2019-04-06T00:08:41.282Z,8.79
2019-04-06T00:09:41.228Z,8.89
2019-04-06T00:10:41.219Z,8.82
2019-04-06T00:11:41.281Z,8.85
2019-04-06T00:12:41.284Z,8.89
2019-04-06T00:13:41.248Z,8.79
2019-04-06T00:14:41.196Z,8.84
2019-04-06T00:15:41.167Z,8.84
2019-04-06T00:16:41.140Z,8.79
2019-04-06T00:17:41.165Z,8.85
2019-04-06T00:18:41.138Z,8.84
2019-04-06T00:19:41.147Z,8.84
2019-04-06T00:20:41.128Z,8.88
2019-04-06T00:21:41.058Z,8.81
2019-04-06T00:22:41.086Z,8.79
2019-04-06T00:23:41.047Z,8.81
2019-04-06T00:24:41.023Z,8.82
2019-04-06T00:25:44.763Z,8.71
2019-04-06T00:26:41.111Z,8.84
2019-04-06T00:27:41.002Z,8.85
2019-04-06T00:28:40.975Z,8.85
2019-04-06T00:29:40.975Z,8.88
2019-04-06T00:30:40.977Z,8.89
2019-04-06T00:31:40.938Z,8.88
2019-04-06T00:32:41.117Z,8.89
2019-04-06T00:33:40.929Z,8.84
2019-04-06T00:34:40.906Z,8.87
2019-04-06T00:35:40.987Z,8.92
2019-04-06T00:36:40.891Z,8.78
2019-04-06T00:37:40.862Z,8.88
2019-04-06T00:38:41.020Z,8.82
2019-04-06T00:39:40.862Z,8.82
2019-04-06T00:40:40.868Z,8.85
2019-04-06T00:41:40.834Z,8.89
2019-04-06T00:42:40.892Z,8.95
2019-04-06T00:43:40.811Z,8.85
2019-04-06T00:44:40.831Z,8.82
2019-04-06T00:45:40.819Z,8.76
2019-04-06T00:46:40.808Z,8.84
2019-04-06T00:47:40.825Z,8.87
2019-04-06T00:48:40.964Z,8.79
2019-04-06T00:49:40.753Z,8.85
2019-04-06T00:50:40.734Z,8.84
2019-04-06T00:51:40.788Z,8.88
2019-04-06T00:52:40.717Z,8.82
2019-04-06T00:53:40.699Z,8.88
2019-04-06T00:54:40.786Z,8.88
2019-04-06T00:55:40.705Z,8.74
2019-04-06T00:56:40.661Z,8.91
2019-04-06T00:57:40.654Z,8.84
2019-04-06T00:58:40.670Z,8.85
2019-04-06T00:59:40.709Z,8.88
2019-04-06T01:00:40.665Z,8.95
2019-04-06T01:01:40.609Z,8.92
2019-04-06T01:02:40.603Z,8.87
2019-04-06T01:03:40.588Z,8.89
2019-04-06T01:04:40.778Z,8.74
2019-04-06T01:05:40.618Z,8.84
2019-04-06T01:06:40.554Z,8.82
2019-04-06T01:07:40.607Z,8.94
2019-04-06T01:08:40.591Z,8.84
2019-04-06T01:09:40.571Z,8.99
2019-04-06T01:10:40.536Z,8.87
2019-04-06T01:11:40.489Z,8.91
2019-04-06T01:12:40.731Z,8.97
2019-04-06T01:13:40.499Z,8.91
2019-04-06T01:14:40.471Z,8.84
2019-04-06T01:15:40.587Z,8.88
2019-04-06T01:16:40.436Z,8.87
2019-04-06T01:17:40.445Z,8.84
2019-04-06T01:18:40.536Z,8.88
2019-04-06T01:19:40.421Z,8.99
2019-04-06T01:20:40.417Z,8.85
2019-04-06T01:21:40.417Z,8.91
2019-04-06T01:22:40.500Z,8.84
2019-04-06T01:23:40.359Z,8.88
2019-04-06T01:24:40.433Z,8.87
2019-04-06T01:25:40.346Z,8.91
2019-04-06T01:26:40.331Z,8.82
2019-04-06T01:27:40.314Z,8.88
2019-04-06T01:28:40.321Z,8.89
2019-04-06T01:29:40.293Z,8.81
2019-04-06T01:30:40.336Z,8.84
2019-04-06T01:31:41.100Z,8.94
2019-04-06T01:32:40.338Z,8.89
2019-04-06T01:33:40.245Z,8.84
2019-04-06T01:34:40.370Z,8.91
2019-04-06T01:35:40.227Z,8.82
2019-04-06T01:36:40.255Z,8.87
2019-04-06T01:37:40.255Z,8.87
2019-04-06T01:38:40.189Z,8.91
2019-04-06T01:39:40.189Z,8.88
2019-04-06T01:40:40.218Z,8.94
2019-04-06T01:41:40.160Z,8.89
2019-04-06T01:42:40.219Z,8.89
2019-04-06T01:43:40.144Z,8.88
2019-04-06T01:44:40.171Z,8.81
2019-04-06T01:45:40.117Z,8.89
2019-04-06T01:46:40.153Z,8.87
2019-04-06T01:47:41.105Z,8.81
2019-04-06T01:48:40.092Z,8.85
2019-04-06T01:49:40.069Z,8.79
2019-04-06T01:50:40.060Z,8.91
2019-04-06T01:51:40.119Z,8.88
2019-04-06T01:52:40.024Z,8.84
2019-04-06T01:53:40.027Z,8.91
2019-04-06T01:54:40.149Z,8.88
2019-04-06T01:55:40.031Z,8.84
2019-04-06T01:56:39.981Z,8.84
2019-04-06T01:57:40.038Z,8.89
2019-04-06T01:58:39.976Z,8.85
2019-04-06T01:59:47.058Z,8.79
2019-04-06T02:00:39.973Z,8.84
2019-04-06T02:01:39.992Z,8.81
2019-04-06T02:02:39.938Z,8.84
2019-04-06T02:03:40.003Z,8.82
2019-04-06T02:04:39.965Z,8.81
2019-04-06T02:05:39.903Z,8.87
2019-04-06T02:06:39.871Z,8.79
2019-04-06T02:07:39.891Z,8.69
2019-04-06T02:08:39.972Z,8.81
2019-04-06T02:09:39.828Z,8.79
2019-04-06T02:10:39.882Z,8.71
2019-04-06T02:11:39.871Z,8.71
2019-04-06T02:12:39.920Z,8.67
2019-04-06T02:13:39.907Z,8.71
2019-04-06T02:14:39.802Z,8.73
2019-04-06T02:15:40.718Z,8.73
2019-04-06T02:16:39.757Z,8.70
2019-04-06T02:17:39.777Z,8.74
2019-04-06T02:18:39.908Z,8.78
2019-04-06T02:19:39.731Z,8.78
2019-04-06T02:20:39.728Z,8.70
2019-04-06T02:21:39.750Z,8.71
2019-04-06T02:22:39.699Z,8.71
2019-04-06T02:23:39.706Z,8.69
2019-04-06T02:24:39.835Z,8.76
2019-04-06T02:25:39.664Z,8.67
2019-04-06T02:26:39.660Z,8.69
2019-04-06T02:27:39.767Z,8.69
2019-04-06T02:28:39.633Z,8.70
2019-04-06T02:29:39.635Z,8.73
2019-04-06T02:30:39.641Z,8.71
2019-04-06T02:31:39.779Z,8.73
2019-04-06T02:32:39.743Z,8.69
2019-04-06T02:33:39.588Z,8.71
2019-04-06T02:34:39.574Z,8.66
2019-04-06T02:35:39.553Z,8.67
2019-04-06T02:36:39.742Z,8.71
2019-04-06T02:37:39.568Z,8.69
2019-04-06T02:38:39.517Z,8.69
2019-04-06T02:39:39.520Z,8.70
2019-04-06T02:40:39.533Z,8.69
2019-04-06T02:41:39.487Z,8.70
2019-04-06T02:42:39.544Z,8.67
2019-04-06T02:43:39.563Z,8.73
2019-04-06T02:44:39.457Z,8.70
2019-04-06T02:45:39.452Z,8.70
2019-04-06T02:46:39.645Z,8.71
2019-04-06T02:47:39.429Z,8.71
2019-04-06T02:48:39.483Z,8.76
2019-04-06T02:49:39.402Z,8.71
2019-04-06T02:50:39.381Z,8.81
2019-04-06T02:51:39.468Z,8.78
2019-04-06T02:52:39.362Z,8.81
2019-04-06T02:53:39.371Z,8.81
2019-04-06T02:54:39.410Z,8.81
2019-04-06T02:55:39.472Z,8.81
2019-04-06T02:56:46.636Z,8.81
2019-04-06T02:57:40.299Z,8.82
2019-04-06T02:58:39.290Z,8.84
2019-04-06T02:59:39.322Z,8.81
2019-04-06T03:00:39.340Z,8.78
2019-04-06T03:01:39.367Z,8.79
2019-04-06T03:02:39.249Z,8.85
2019-04-06T03:03:39.235Z,8.85
2019-04-06T03:04:39.227Z,8.87
2019-04-06T03:05:39.218Z,8.87
2019-04-06T03:06:39.208Z,8.88
2019-04-06T03:07:39.357Z,8.84
2019-04-06T03:08:39.182Z,8.91
2019-04-06T03:09:39.213Z,8.84
2019-04-06T03:10:39.220Z,8.87
2019-04-06T03:11:39.169Z,8.82
2019-04-06T03:12:39.208Z,8.81
2019-04-06T03:13:39.123Z,8.85
2019-04-06T03:14:39.130Z,8.82
2019-04-06T03:15:39.776Z,8.84
2019-04-06T03:16:39.087Z,8.85
2019-04-06T03:17:39.104Z,8.85
2019-04-06T03:18:39.107Z,8.89
2019-04-06T03:19:39.048Z,8.82
2019-04-06T03:20:39.046Z,8.82
2019-04-06T03:21:39.044Z,8.81
2019-04-06T03:22:39.102Z,8.89
2019-04-06T03:23:50.826Z,8.87
2019-04-06T03:24:40.262Z,8.91
2019-04-06T03:25:39.001Z,8.94
2019-04-06T03:26:38.997Z,8.84
2019-04-06T03:27:38.962Z,8.87
2019-04-06T03:28:39.020Z,8.87
2019-04-06T03:29:38.999Z,8.88
2019-04-06T03:30:38.939Z,8.85
2019-04-06T03:31:38.929Z,8.87
2019-04-06T03:32:39.018Z,8.85
2019-04-06T03:33:38.980Z,8.84
2019-04-06T03:34:38.975Z,8.87
2019-04-06T03:35:45.456Z,8.82
2019-04-06T03:36:39.959Z,8.81
2019-04-06T03:37:38.875Z,8.82
2019-04-06T03:38:38.838Z,8.82
2019-04-06T03:39:39.047Z,8.81
2019-04-06T03:40:38.902Z,8.79
2019-04-06T03:41:38.865Z,8.76
2019-04-06T03:42:39.671Z,8.76
2019-04-06T03:43:38.859Z,8.79
2019-04-06T03:44:38.784Z,8.76
2019-04-06T03:45:38.777Z,8.79
2019-04-06T03:46:38.784Z,8.87
2019-04-06T03:47:39.049Z,8.85
2019-04-06T03:48:38.759Z,8.87
2019-04-06T03:49:38.717Z,8.82
2019-04-06T03:50:38.823Z,8.87
2019-04-06T03:51:38.709Z,8.87
2019-04-06T03:52:38.687Z,8.87
2019-04-06T03:53:38.853Z,8.85
2019-04-06T03:54:38.703Z,8.89
2019-04-06T03:55:38.667Z,8.84
2019-04-06T03:56:38.664Z,8.81
2019-04-06T03:57:38.643Z,8.84
2019-04-06T03:58:38.637Z,8.81
2019-04-06T03:59:38.700Z,8.85
2019-04-06T04:00:38.598Z,8.89
2019-04-06T04:01:38.699Z,8.91
2019-04-06T04:02:38.575Z,8.88
2019-04-06T04:03:38.606Z,8.88
2019-04-06T04:04:38.567Z,8.82
2019-04-06T04:05:38.686Z,8.87
2019-04-06T04:06:38.654Z,8.85
2019-04-06T04:07:38.508Z,8.92
2019-04-06T04:08:38.534Z,8.91
2019-04-06T04:09:38.523Z,8.88
2019-04-06T04:10:38.495Z,8.81
2019-04-06T04:11:38.515Z,8.88
2019-04-06T04:12:38.463Z,8.82
2019-04-06T04:13:38.784Z,8.81
2019-04-06T04:14:38.480Z,8.87
2019-04-06T04:15:38.439Z,8.81
2019-04-06T04:16:38.560Z,8.88
2019-04-06T04:17:38.408Z,8.91
2019-04-06T04:18:38.411Z,8.87
2019-04-06T04:19:38.513Z,8.94
2019-04-06T04:20:38.444Z,8.84
2019-04-06T04:21:38.389Z,8.84
2019-04-06T04:22:38.353Z,8.88
2019-04-06T04:23:38.637Z,8.91
2019-04-06T04:24:38.351Z,8.89
2019-04-06T04:25:38.337Z,8.94
2019-04-06T04:26:38.561Z,8.89
2019-04-06T04:27:38.398Z,8.89
2019-04-06T04:28:38.320Z,8.81
2019-04-06T04:29:38.351Z,8.84
2019-04-06T04:30:38.269Z,8.85
2019-04-06T04:31:38.325Z,8.91
2019-04-06T04:32:38.259Z,8.87
2019-04-06T04:33:38.234Z,8.85
2019-04-06T04:34:38.279Z,8.84
2019-04-06T04:35:38.414Z,8.88
2019-04-06T04:36:38.199Z,8.85
2019-04-06T04:37:38.191Z,8.87
2019-04-06T04:38:38.244Z,8.85
2019-04-06T04:39:38.172Z,8.85
2019-04-06T04:40:38.292Z,8.82
2019-04-06T04:41:39.758Z,8.88
2019-04-06T04:42:38.127Z,8.84
2019-04-06T04:43:38.275Z,8.81
2019-04-06T04:44:38.112Z,8.85
2019-04-06T04:45:38.167Z,8.81
2019-04-06T04:46:38.461Z,8.84
2019-04-06T04:47:38.182Z,8.82
2019-04-06T04:48:38.101Z,8.81
2019-04-06T04:49:38.182Z,8.82
2019-04-06T04:50:38.053Z,8.78
2019-04-06T04:51:38.022Z,8.79
2019-04-06T04:52:38.093Z,8.79
2019-04-06T04:53:38.060Z,8.78
2019-04-06T04:54:38.052Z,8.84
2019-04-06T04:55:37.986Z,8.85
2019-04-06T04:56:37.981Z,8.81
2019-04-06T04:57:40.885Z,8.82
2019-04-06T04:58:37.946Z,8.87
2019-04-06T04:59:37.959Z,8.82
2019-04-06T05:00:38.044Z,8.82
2019-04-06T05:01:37.907Z,8.71
2019-04-06T05:02:38.018Z,8.82
2019-04-06T05:03:37.908Z,8.85
2019-04-06T05:04:37.887Z,8.81
2019-04-06T05:05:37.902Z,8.82
2019-04-06T05:06:37.864Z,8.85
2019-04-06T05:07:37.902Z,8.85
2019-04-06T05:08:37.830Z,8.91
2019-04-06T05:09:37.894Z,8.92
2019-04-06T05:10:37.817Z,8.84
2019-04-06T05:11:37.810Z,8.84
2019-04-06T05:12:37.804Z,8.85
2019-04-06T05:13:37.861Z,8.82
2019-04-06T05:14:37.762Z,8.85
2019-04-06T05:15:38.678Z,8.92
2019-04-06T05:16:37.871Z,8.82
2019-04-06T05:17:37.732Z,8.91
2019-04-06T05:18:37.774Z,8.87
2019-04-06T05:19:37.710Z,8.92
2019-04-06T05:20:37.767Z,8.88
2019-04-06T05:21:37.709Z,8.79
2019-04-06T05:22:37.677Z,8.81
2019-04-06T05:23:37.826Z,8.99
2019-04-06T05:24:37.642Z,8.84
2019-04-06T05:25:37.654Z,8.95
2019-04-06T05:26:38.346Z,8.74
2019-04-06T05:27:37.693Z,8.84
2019-04-06T05:28:37.607Z,8.81
2019-04-06T05:29:37.765Z,8.88
2019-04-06T05:30:37.595Z,8.91
2019-04-06T05:31:37.584Z,8.94
2019-04-06T05:32:37.599Z,8.91
2019-04-06T05:33:37.562Z,8.91
2019-04-06T05:34:37.564Z,8.89
2019-04-06T05:35:37.567Z,8.99
2019-04-06T05:36:37.535Z,8.91
2019-04-06T05:37:37.518Z,8.88
2019-04-06T05:38:37.516Z,8.95
2019-04-06T05:39:38.187Z,8.97
2019-04-06T05:40:37.647Z,8.95
2019-04-06T05:41:37.531Z,8.95
2019-04-06T05:42:37.772Z,8.97
2019-04-06T05:43:37.436Z,8.94
2019-04-06T05:44:37.439Z,9.04
2019-04-06T05:45:38.315Z,8.97
2019-04-06T05:46:37.406Z,8.95
2019-04-06T05:47:37.396Z,9.11
2019-04-06T05:48:37.649Z,8.99
2019-04-06T05:49:37.426Z,8.95
2019-04-06T05:50:37.380Z,8.97
2019-04-06T05:51:37.392Z,8.94
2019-04-06T05:52:37.342Z,8.97
2019-04-06T05:53:37.344Z,8.97
2019-04-06T05:54:37.756Z,8.97
2019-04-06T05:55:37.446Z,9.08
2019-04-06T05:56:37.297Z,8.97
2019-04-06T05:57:38.030Z,9.08
2019-04-06T05:58:40.468Z,9.08
2019-04-06T05:59:39.917Z,9.06
2019-04-06T06:00:40.165Z,9.08
2019-04-06T06:01:40.264Z,9.18
2019-04-06T06:02:40.331Z,9.14
2019-04-06T06:03:40.178Z,9.14
2019-04-06T06:04:40.258Z,9.16
2019-04-06T06:05:40.334Z,9.10
2019-04-06T06:06:37.188Z,9.16
2019-04-06T06:07:37.166Z,9.11
2019-04-06T06:08:38.193Z,9.23
2019-04-06T06:09:37.146Z,9.11
2019-04-06T06:10:38.384Z,9.06
2019-04-06T06:11:37.225Z,9.16
2019-04-06T06:12:37.147Z,9.14
2019-04-06T06:13:39.163Z,9.21
2019-04-06T06:14:37.302Z,9.26
2019-04-06T06:15:37.083Z,9.26
2019-04-06T06:16:37.242Z,9.23
2019-04-06T06:17:37.079Z,9.21
2019-04-06T06:18:37.053Z,9.23
2019-04-06T06:19:37.398Z,9.34
2019-04-06T06:20:37.069Z,9.31
2019-04-06T06:21:37.033Z,9.32
2019-04-06T06:22:37.140Z,9.32
2019-04-06T06:23:37.047Z,9.36
2019-04-06T06:24:36.987Z,9.37
2019-04-06T06:25:37.235Z,9.39
2019-04-06T06:26:36.965Z,9.44
2019-04-06T06:27:36.974Z,9.40
2019-04-06T06:28:37.033Z,9.46
2019-04-06T06:29:37.373Z,9.43
2019-04-06T06:30:36.913Z,9.43
2019-04-06T06:31:36.893Z,9.47
2019-04-06T06:32:37.037Z,9.47
2019-04-06T06:33:37.694Z,9.50
2019-04-06T06:34:36.877Z,9.56
2019-04-06T06:35:36.988Z,9.54
2019-04-06T06:36:36.861Z,9.54
2019-04-06T06:37:36.873Z,9.55
2019-04-06T06:38:39.001Z,9.54
2019-04-06T06:39:37.108Z,9.55
2019-04-06T06:40:36.816Z,9.55
2019-04-06T06:41:36.805Z,9.58
2019-04-06T06:42:36.794Z,9.59
2019-04-06T06:43:36.766Z,9.62
2019-04-06T06:44:36.771Z,9.64
2019-04-06T06:45:36.921Z,9.58
2019-04-06T06:46:36.747Z,9.64
2019-04-06T06:47:36.726Z,9.61
2019-04-06T06:48:36.718Z,9.64
2019-04-06T06:49:36.706Z,9.62
2019-04-06T06:50:36.758Z,9.65
2019-04-06T06:51:36.777Z,9.66
2019-04-06T06:52:36.717Z,9.68
2019-04-06T06:53:36.686Z,9.66
2019-04-06T06:54:36.655Z,9.79
2019-04-06T06:55:36.673Z,9.73
2019-04-06T06:56:36.629Z,9.79
2019-04-06T06:57:36.614Z,9.86
2019-04-06T06:58:36.605Z,9.83
2019-04-06T06:59:36.618Z,9.84
2019-04-06T07:00:36.573Z,9.87
2019-04-06T07:01:36.720Z,9.91
2019-04-06T07:02:36.559Z,9.95
2019-04-06T07:03:36.536Z,9.92
2019-04-06T07:04:36.748Z,10.05
2019-04-06T07:05:36.537Z,10.07
2019-04-06T07:06:36.598Z,10.04
2019-04-06T07:07:36.530Z,10.07
2019-04-06T07:08:36.482Z,10.10
2019-04-06T07:09:36.502Z,10.05
2019-04-06T07:10:36.551Z,10.04
2019-04-06T07:11:36.531Z,10.07
2019-04-06T07:12:36.609Z,10.12
2019-04-06T07:13:36.436Z,10.16
2019-04-06T07:14:36.462Z,10.17
2019-04-06T07:15:36.412Z,10.13
2019-04-06T07:16:36.417Z,10.23
2019-04-06T07:17:36.385Z,10.28
2019-04-06T07:18:36.433Z,10.28
2019-04-06T07:19:36.364Z,10.28
2019-04-06T07:20:36.369Z,10.40
2019-04-06T07:21:36.349Z,10.41
2019-04-06T07:22:36.724Z,10.35
2019-04-06T07:23:36.419Z,10.49
2019-04-06T07:24:36.301Z,10.53
2019-04-06T07:25:36.541Z,10.37
2019-04-06T07:26:36.328Z,10.46
2019-04-06T07:27:36.312Z,10.42
2019-04-06T07:28:38.910Z,10.42
2019-04-06T07:29:36.321Z,10.61
2019-04-06T07:30:36.259Z,10.59
2019-04-06T07:31:36.351Z,10.67
2019-04-06T07:32:36.258Z,10.63
2019-04-06T07:33:36.218Z,10.63
2019-04-06T07:34:36.249Z,10.63
2019-04-06T07:35:36.231Z,10.71
2019-04-06T07:36:36.196Z,10.72
2019-04-06T07:37:36.168Z,10.79
2019-04-06T07:38:37.945Z,10.71
2019-04-06T07:39:36.158Z,10.71
2019-04-06T07:40:36.319Z,10.78
2019-04-06T07:41:36.346Z,10.82
2019-04-06T07:42:36.113Z,10.90
2019-04-06T07:43:36.132Z,10.93
2019-04-06T07:44:36.225Z,10.92
2019-04-06T07:45:36.329Z,10.92
2019-04-06T07:46:36.066Z,10.92
2019-04-06T07:47:36.212Z,10.96
2019-04-06T07:48:36.047Z,10.96
2019-04-06T07:49:36.030Z,11.02
2019-04-06T07:50:36.035Z,11.14
2019-04-06T07:51:36.075Z,11.05
2019-04-06T07:52:36.023Z,11.12
2019-04-06T07:53:36.073Z,11.18
2019-04-06T07:54:36.022Z,11.15
2019-04-06T07:55:35.984Z,11.23
2019-04-06T07:56:35.982Z,11.22
2019-04-06T07:57:35.949Z,11.22
2019-04-06T07:58:36.012Z,11.26
2019-04-06T07:59:35.936Z,11.27
2019-04-06T08:00:42.969Z,11.15
2019-04-06T08:01:35.921Z,11.29
2019-04-06T08:02:35.973Z,11.26
2019-04-06T08:03:36.057Z,11.32
2019-04-06T08:04:35.927Z,11.33
2019-04-06T08:05:35.862Z,11.36
2019-04-06T08:06:36.750Z,11.40
2019-04-06T08:07:35.888Z,11.35
2019-04-06T08:08:36.752Z,11.45
2019-04-06T08:09:35.821Z,11.43
2019-04-06T08:10:35.928Z,11.47
2019-04-06T08:11:35.929Z,11.51
2019-04-06T08:12:35.792Z,11.50
2019-04-06T08:13:35.985Z,11.51
2019-04-06T08:14:35.791Z,11.51
2019-04-06T08:15:35.749Z,11.47
2019-04-06T08:16:35.736Z,11.50
2019-04-06T08:17:35.771Z,11.60
2019-04-06T08:18:35.728Z,11.55
2019-04-06T08:19:35.686Z,11.57
2019-04-06T08:20:35.683Z,11.69
2019-04-06T08:21:35.808Z,11.63
2019-04-06T08:22:35.894Z,11.70
2019-04-06T08:23:35.662Z,11.75
2019-04-06T08:24:35.659Z,11.77
2019-04-06T08:25:35.715Z,11.75
2019-04-06T08:26:35.909Z,11.88
2019-04-06T08:27:35.777Z,11.81
2019-04-06T08:28:35.851Z,11.86
2019-04-06T08:29:35.793Z,11.91
2019-04-06T08:30:44.751Z,11.94
2019-04-06T08:31:36.681Z,11.95
2019-04-06T08:32:35.570Z,12.00
2019-04-06T08:33:35.520Z,11.94
2019-04-06T08:34:35.523Z,12.07
2019-04-06T08:35:35.512Z,12.03
2019-04-06T08:36:35.706Z,12.02
2019-04-06T08:37:35.503Z,12.13
2019-04-06T08:38:35.479Z,12.15
2019-04-06T08:39:35.539Z,12.17
2019-04-06T08:40:35.459Z,12.15
2019-04-06T08:41:35.454Z,12.17
2019-04-06T08:42:35.503Z,12.25
2019-04-06T08:43:35.479Z,12.28
2019-04-06T08:44:35.402Z,12.39
2019-04-06T08:45:35.410Z,12.37
2019-04-06T08:46:35.399Z,12.40
2019-04-06T08:47:35.435Z,12.39
2019-04-06T08:48:35.387Z,12.46
2019-04-06T08:49:35.369Z,12.46
2019-04-06T08:50:35.354Z,12.50
2019-04-06T08:51:35.522Z,12.57
2019-04-06T08:52:35.491Z,12.64
2019-04-06T08:53:35.423Z,12.58
2019-04-06T08:54:35.328Z,12.60
2019-04-06T08:55:35.283Z,12.65
2019-04-06T08:56:35.411Z,12.67
2019-04-06T08:57:35.280Z,12.64
2019-04-06T08:58:35.323Z,12.75
2019-04-06T08:59:35.311Z,12.82
2019-04-06T09:00:35.228Z,12.79
2019-04-06T09:01:35.666Z,12.75
2019-04-06T09:02:35.215Z,12.93
2019-04-06T09:03:35.231Z,12.87
2019-04-06T09:04:35.249Z,12.93
2019-04-06T09:05:35.176Z,12.97
2019-04-06T09:06:35.252Z,12.95
2019-04-06T09:07:35.167Z,13.01
2019-04-06T09:08:35.127Z,13.00
2019-04-06T09:09:35.192Z,13.03
2019-04-06T09:10:35.355Z,13.05
2019-04-06T09:11:35.117Z,13.00
2019-04-06T09:12:35.142Z,13.01
2019-04-06T09:13:35.113Z,13.11
2019-04-06T09:14:35.075Z,13.05
2019-04-06T09:15:35.055Z,13.11
2019-04-06T09:16:35.086Z,13.08
2019-04-06T09:17:35.056Z,13.12
2019-04-06T09:18:35.032Z,13.23
2019-04-06T09:19:35.023Z,13.23
2019-04-06T09:20:35.119Z,13.22
2019-04-06T09:21:35.001Z,13.25
2019-04-06T09:22:34.993Z,13.22
2019-04-06T09:23:35.156Z,13.33
2019-04-06T09:24:34.975Z,13.27
2019-04-06T09:25:34.974Z,13.35
2019-04-06T09:26:35.001Z,13.31
2019-04-06T09:27:35.158Z,13.35
2019-04-06T09:28:35.219Z,13.37
2019-04-06T09:29:34.910Z,13.27
2019-04-06T09:30:34.942Z,13.33
2019-04-06T09:31:34.895Z,13.27
2019-04-06T09:32:34.875Z,13.30
2019-04-06T09:33:34.876Z,13.31
2019-04-06T09:34:34.915Z,13.35
2019-04-06T09:35:34.861Z,13.30
2019-04-06T09:36:35.105Z,13.28
2019-04-06T09:37:34.820Z,13.27
2019-04-06T09:38:34.843Z,13.39
2019-04-06T09:39:34.995Z,13.42
2019-04-06T09:40:34.800Z,13.42
2019-04-06T09:41:34.908Z,13.47
2019-04-06T09:42:34.757Z,13.39
2019-04-06T09:43:34.744Z,13.44
2019-04-06T09:44:34.759Z,13.49
2019-04-06T09:45:34.722Z,13.50
2019-04-06T09:46:34.721Z,13.47
2019-04-06T09:47:34.813Z,13.52
2019-04-06T09:48:34.743Z,13.59
2019-04-06T09:49:34.692Z,13.56
2019-04-06T09:50:34.691Z,13.63
2019-04-06T09:51:34.642Z,13.60
2019-04-06T09:52:34.650Z,13.62
2019-04-06T09:53:34.686Z,13.71
2019-04-06T09:54:34.679Z,13.75
2019-04-06T09:55:34.623Z,13.67
2019-04-06T09:56:34.734Z,13.63
2019-04-06T09:57:34.584Z,13.59
2019-04-06T09:58:34.603Z,13.62
2019-04-06T09:59:37.108Z,13.53
2019-04-06T10:00:34.665Z,13.52
2019-04-06T10:01:38.976Z,13.53
2019-04-06T10:02:34.689Z,13.41
2019-04-06T10:03:34.777Z,13.41
2019-04-06T10:04:34.520Z,13.47
2019-04-06T10:05:34.510Z,13.44
2019-04-06T10:06:34.595Z,13.38
2019-04-06T10:07:34.498Z,13.41
2019-04-06T10:08:34.475Z,13.42
2019-04-06T10:09:34.802Z,13.46
2019-04-06T10:10:34.506Z,13.41
2019-04-06T10:11:34.575Z,13.44
2019-04-06T10:12:34.561Z,13.49
2019-04-06T10:13:34.421Z,13.41
2019-04-06T10:14:34.472Z,13.47
2019-04-06T10:15:34.429Z,13.52
2019-04-06T10:16:34.443Z,13.50
2019-04-06T10:17:34.377Z,13.53
2019-04-06T10:18:41.113Z,13.52
2019-04-06T10:19:34.533Z,13.56
2019-04-06T10:20:34.413Z,13.54
2019-04-06T10:21:34.364Z,13.59
2019-04-06T10:22:34.318Z,13.57
2019-04-06T10:23:34.305Z,13.62
2019-04-06T10:24:34.326Z,13.60
2019-04-06T10:25:34.411Z,13.60
2019-04-06T10:26:34.473Z,13.59
2019-04-06T10:27:34.418Z,13.60
2019-04-06T10:28:34.382Z,13.60
2019-04-06T10:29:46.817Z,13.57
2019-04-06T10:30:35.229Z,13.57
2019-04-06T10:31:34.238Z,13.50
2019-04-06T10:32:34.200Z,13.52
2019-04-06T10:33:34.241Z,13.52
2019-04-06T10:34:34.177Z,13.56
2019-04-06T10:35:34.331Z,13.60
2019-04-06T10:36:34.205Z,13.62
2019-04-06T10:37:34.126Z,13.62
2019-04-06T10:38:34.130Z,13.67
2019-04-06T10:39:34.130Z,13.68
2019-04-06T10:40:34.786Z,13.72
2019-04-06T10:41:34.099Z,13.65
2019-04-06T10:42:34.141Z,13.68
2019-04-06T10:43:34.201Z,13.70
2019-04-06T10:44:34.125Z,13.68
2019-04-06T10:45:34.060Z,13.60
2019-04-06T10:46:34.058Z,13.68
2019-04-06T10:47:34.045Z,13.77
2019-04-06T10:48:34.046Z,13.71
2019-04-06T10:49:34.021Z,13.78
2019-04-06T10:50:34.107Z,13.81
2019-04-06T10:51:33.984Z,13.85
2019-04-06T10:52:33.970Z,13.96
2019-04-06T10:53:34.019Z,14.04
2019-04-06T10:54:33.980Z,14.04
2019-04-06T10:55:33.939Z,14.11
2019-04-06T10:56:34.788Z,14.23
2019-04-06T10:57:33.931Z,14.14
2019-04-06T10:58:33.899Z,14.28
2019-04-06T10:59:34.087Z,14.22
2019-04-06T11:00:33.889Z,14.32
2019-04-06T11:01:33.886Z,14.40
2019-04-06T11:02:33.869Z,14.41
2019-04-06T11:03:33.851Z,14.53
2019-04-06T11:04:34.008Z,14.48
2019-04-06T11:05:34.181Z,14.53
2019-04-06T11:06:33.816Z,14.68
2019-04-06T11:07:33.804Z,14.63
2019-04-06T11:08:33.901Z,14.73
2019-04-06T11:09:33.779Z,14.79
2019-04-06T11:10:33.813Z,14.73
2019-04-06T11:11:33.988Z,14.79
2019-04-06T11:12:33.745Z,14.69
2019-04-06T11:13:33.771Z,14.68
2019-04-06T11:14:33.731Z,14.77
2019-04-06T11:15:33.711Z,14.68
2019-04-06T11:16:33.760Z,14.69
2019-04-06T11:17:33.722Z,14.66
2019-04-06T11:18:33.844Z,14.77
2019-04-06T11:19:33.704Z,14.88
2019-04-06T11:20:33.653Z,14.84
2019-04-06T11:21:33.663Z,14.84
2019-04-06T11:22:33.677Z,14.99
2019-04-06T11:23:34.335Z,14.89
2019-04-06T11:24:33.846Z,14.91
2019-04-06T11:25:33.604Z,15.02
2019-04-06T11:26:33.782Z,15.00
2019-04-06T11:27:33.570Z,15.03
2019-04-06T11:28:33.564Z,15.00
2019-04-06T11:29:34.298Z,15.00
2019-04-06T11:30:33.870Z,15.06
2019-04-06T11:31:33.582Z,15.04
2019-04-06T11:32:33.522Z,15.06
2019-04-06T11:33:33.495Z,15.07
2019-04-06T11:34:33.597Z,15.09
2019-04-06T11:35:33.490Z,15.03
2019-04-06T11:36:33.479Z,15.00
2019-04-06T11:37:33.524Z,15.02
2019-04-06T11:38:33.455Z,15.06
2019-04-06T11:39:33.640Z,15.09
2019-04-06T11:40:33.706Z,15.09
2019-04-06T11:41:33.405Z,15.18
2019-04-06T11:42:33.882Z,15.18
2019-04-06T11:43:33.398Z,15.18
2019-04-06T11:44:33.416Z,15.17
2019-04-06T11:45:33.551Z,15.11
2019-04-06T11:46:34.224Z,15.17
2019-04-06T11:47:33.366Z,15.14
2019-04-06T11:48:33.337Z,15.18
2019-04-06T11:49:33.319Z,15.07
2019-04-06T11:50:33.505Z,15.11
2019-04-06T11:51:33.388Z,15.04
2019-04-06T11:52:33.342Z,15.07
2019-04-06T11:53:33.279Z,14.91
2019-04-06T11:54:33.278Z,14.97
2019-04-06T11:55:33.254Z,14.97
2019-04-06T11:56:33.240Z,14.94
2019-04-06T11:57:33.323Z,14.92
2019-04-06T11:58:33.849Z,14.86
2019-04-06T11:59:33.258Z,14.92
2019-04-06T12:00:33.213Z,14.96
2019-04-06T12:01:33.183Z,14.96
2019-04-06T12:02:33.263Z,14.92
2019-04-06T12:03:33.189Z,14.99
2019-04-06T12:04:33.144Z,14.99
2019-04-06T12:05:33.231Z,15.06
2019-04-06T12:06:33.630Z,15.04
2019-04-06T12:07:33.144Z,15.07
2019-04-06T12:08:33.149Z,15.03
2019-04-06T12:09:33.257Z,15.04
2019-04-06T12:10:33.154Z,15.14
2019-04-06T12:11:33.082Z,15.15
2019-04-06T12:12:33.175Z,15.19
2019-04-06T12:13:33.175Z,15.29
2019-04-06T12:14:33.032Z,15.29
2019-04-06T12:15:33.649Z,15.18
2019-04-06T12:16:33.223Z,15.25
2019-04-06T12:17:33.042Z,15.24
2019-04-06T12:18:33.002Z,15.19
2019-04-06T12:19:33.003Z,15.29
2019-04-06T12:20:33.025Z,15.25
2019-04-06T12:21:32.999Z,15.36
2019-04-06T12:22:33.831Z,15.36
2019-04-06T12:23:33.488Z,15.35
2019-04-06T12:24:32.940Z,15.43
2019-04-06T12:25:33.167Z,15.36
2019-04-06T12:26:32.949Z,15.42
2019-04-06T12:27:32.944Z,15.43
2019-04-06T12:28:33.214Z,15.54
2019-04-06T12:29:32.881Z,15.59
2019-04-06T12:30:38.513Z,15.67
2019-04-06T12:31:33.849Z,15.58
2019-04-06T12:32:32.850Z,15.72
2019-04-06T12:33:33.169Z,15.79
2019-04-06T12:34:32.884Z,15.68
2019-04-06T12:35:32.860Z,15.80
2019-04-06T12:36:32.816Z,15.80
2019-04-06T12:37:32.936Z,15.72
2019-04-06T12:38:32.816Z,15.83
2019-04-06T12:39:32.758Z,15.77
2019-04-06T12:40:32.752Z,15.83
2019-04-06T12:41:32.965Z,15.70
2019-04-06T12:42:32.741Z,15.82
2019-04-06T12:43:32.714Z,15.80
2019-04-06T12:44:32.728Z,15.72
2019-04-06T12:45:32.744Z,15.75
2019-04-06T12:46:32.987Z,15.70
2019-04-06T12:47:32.885Z,15.90
2019-04-06T12:48:32.654Z,15.94
2019-04-06T12:49:32.652Z,16.09
2019-04-06T12:50:32.806Z,16.12
2019-04-06T12:51:32.731Z,16.17
2019-04-06T12:52:32.691Z,16.24
2019-04-06T12:53:32.734Z,16.23
2019-04-06T12:54:32.785Z,16.28
2019-04-06T12:55:32.595Z,16.31
2019-04-06T12:56:32.583Z,16.38
2019-04-06T12:57:32.633Z,16.36
2019-04-06T12:58:32.538Z,16.36
2019-04-06T12:59:35.380Z,16.38
2019-04-06T13:00:32.523Z,16.35
2019-04-06T13:01:32.658Z,16.38
2019-04-06T13:02:32.637Z,16.42
2019-04-06T13:03:32.495Z,16.43
2019-04-06T13:04:32.474Z,16.43
2019-04-06T13:05:32.479Z,16.41
2019-04-06T13:06:32.465Z,16.36